createdAt,value
2022-10-06T00:00:39.499Z,12.62
2022-10-06T00:03:07.059Z,12.59
2022-10-06T00:05:34.639Z,12.56
2022-10-06T00:08:02.521Z,12.53
2022-10-06T00:10:32.668Z,12.51
2022-10-06T00:13:00.681Z,12.49
2022-10-06T00:15:31.834Z,12.48
2022-10-06T00:18:00.694Z,12.54
2022-10-06T00:20:28.931Z,12.62
2022-10-06T00:22:58.941Z,12.68
2022-10-06T00:25:27.567Z,12.75
2022-10-06T00:27:56.176Z,12.82
2022-10-06T00:30:26.331Z,12.88
2022-10-06T00:32:57.651Z,12.93
2022-10-06T00:35:26.713Z,12.96
2022-10-06T00:37:55.121Z,12.98
2022-10-06T00:40:23.058Z,12.99
2022-10-06T00:42:57.708Z,12.98
2022-10-06T00:45:31.238Z,12.95
2022-10-06T00:48:04.357Z,12.90
2022-10-06T00:50:33.087Z,12.84
2022-10-06T00:53:01.642Z,12.79
2022-10-06T00:55:30.319Z,12.75
2022-10-06T00:57:59.164Z,12.71
2022-10-06T01:00:27.448Z,12.68
2022-10-06T01:02:58.805Z,12.62
2022-10-06T01:05:29.992Z,12.56
2022-10-06T01:07:57.641Z,12.53
2022-10-06T01:10:25.457Z,12.53
2022-10-06T01:12:53.085Z,12.57
2022-10-06T01:15:21.887Z,12.63
2022-10-06T01:17:54.258Z,12.71
2022-10-06T01:20:23.018Z,12.78
2022-10-06T01:22:54.900Z,12.84
2022-10-06T01:25:23.037Z,12.94
2022-10-06T01:27:53.495Z,13.02
2022-10-06T01:30:25.781Z,13.09
2022-10-06T01:32:53.619Z,13.16
2022-10-06T01:35:22.136Z,13.21
2022-10-06T01:37:49.686Z,13.25
2022-10-06T01:40:18.443Z,13.29
2022-10-06T01:42:45.991Z,13.33
2022-10-06T01:45:13.530Z,13.37
2022-10-06T01:47:41.080Z,13.40
2022-10-06T01:50:09.446Z,13.43
2022-10-06T01:52:37.176Z,13.46
2022-10-06T01:55:06.729Z,13.49
2022-10-06T01:57:39.410Z,13.52
2022-10-06T02:00:10.364Z,13.54
2022-10-06T02:02:37.936Z,13.57
2022-10-06T02:05:06.637Z,13.59
2022-10-06T02:07:36.136Z,13.60
2022-10-06T02:10:05.658Z,13.62
2022-10-06T02:12:34.524Z,13.65
2022-10-06T02:15:02.368Z,13.68
2022-10-06T02:17:30.046Z,13.71
2022-10-06T02:19:57.590Z,13.73
2022-10-06T02:22:25.162Z,13.76
2022-10-06T02:24:52.727Z,13.77
2022-10-06T02:27:20.217Z,13.79
2022-10-06T02:29:49.679Z,13.81
2022-10-06T02:32:17.209Z,13.82
2022-10-06T02:34:44.727Z,13.84
2022-10-06T02:37:15.229Z,13.84
2022-10-06T02:39:42.702Z,13.84
2022-10-06T02:42:10.550Z,13.83
2022-10-06T02:44:38.045Z,13.81
2022-10-06T02:47:05.732Z,13.79
2022-10-06T02:49:33.318Z,13.77
2022-10-06T02:52:00.864Z,13.75
2022-10-06T02:54:28.378Z,13.72
2022-10-06T02:56:55.998Z,13.70
2022-10-06T02:59:23.595Z,13.67
2022-10-06T03:01:51.807Z,13.65
2022-10-06T03:04:19.806Z,13.62
2022-10-06T03:06:49.347Z,13.59
2022-10-06T03:09:18.088Z,13.56
2022-10-06T03:11:46.050Z,13.53
2022-10-06T03:14:17.765Z,13.51
2022-10-06T03:16:49.730Z,13.49
2022-10-06T03:19:17.387Z,13.46
2022-10-06T03:21:44.941Z,13.44
2022-10-06T03:24:12.673Z,13.42
2022-10-06T03:26:42.679Z,13.41
2022-10-06T03:29:12.102Z,13.41
2022-10-06T03:31:42.268Z,13.43
2022-10-06T03:34:10.577Z,13.48
2022-10-06T03:36:38.450Z,13.53
2022-10-06T03:39:06.547Z,13.58
2022-10-06T03:41:36.329Z,13.63
2022-10-06T03:44:04.630Z,13.66
2022-10-06T03:46:34.851Z,13.69
2022-10-06T03:49:03.324Z,13.71
2022-10-06T03:51:32.822Z,13.72
2022-10-06T03:54:00.700Z,13.72
2022-10-06T03:56:29.918Z,13.72
2022-10-06T03:58:59.203Z,13.72
2022-10-06T04:01:28.768Z,13.72
2022-10-06T04:03:58.326Z,13.71
2022-10-06T04:06:27.878Z,13.70
2022-10-06T04:08:55.572Z,13.68
2022-10-06T04:11:25.590Z,13.65
2022-10-06T04:13:57.414Z,13.63
2022-10-06T04:16:27.177Z,13.60
2022-10-06T04:18:56.551Z,13.57
2022-10-06T04:21:26.099Z,13.55
2022-10-06T04:23:53.983Z,13.52
2022-10-06T04:26:23.302Z,13.50
2022-10-06T04:28:51.579Z,13.48
2022-10-06T04:31:21.675Z,13.45
2022-10-06T04:33:52.251Z,13.43
2022-10-06T04:36:22.335Z,13.40
2022-10-06T04:38:50.859Z,13.37
2022-10-06T04:41:19.874Z,13.34
2022-10-06T04:43:48.171Z,13.33
2022-10-06T04:46:41.707Z,13.31
2022-10-06T04:49:05.047Z,13.29
2022-10-06T04:51:32.565Z,13.27
2022-10-06T04:54:00.554Z,13.25
2022-10-06T04:56:29.995Z,13.25
2022-10-06T04:58:58.450Z,13.25
2022-10-06T05:01:28.587Z,13.26
2022-10-06T05:03:58.338Z,13.28
2022-10-06T05:06:28.597Z,13.28
2022-10-06T05:08:57.698Z,13.29
2022-10-06T05:11:26.248Z,13.29
2022-10-06T05:13:55.495Z,13.30
2022-10-06T05:16:25.103Z,13.31
2022-10-06T05:18:52.687Z,13.33
2022-10-06T05:21:22.387Z,13.34
2022-10-06T05:23:50.303Z,13.35
2022-10-06T05:26:19.728Z,13.35
2022-10-06T05:28:48.053Z,13.36
2022-10-06T05:31:17.307Z,13.36
2022-10-06T05:33:45.175Z,13.38
2022-10-06T05:36:15.487Z,13.39
2022-10-06T05:38:43.560Z,13.40
2022-10-06T05:41:13.474Z,13.42
2022-10-06T05:43:41.988Z,13.44
2022-10-06T05:46:16.604Z,13.45
2022-10-06T05:48:46.591Z,13.48
2022-10-06T05:51:14.468Z,13.51
2022-10-06T05:53:42.838Z,13.54
2022-10-06T05:56:12.643Z,13.58
2022-10-06T05:58:42.420Z,13.61
2022-10-06T06:01:12.302Z,13.66
2022-10-06T06:03:41.516Z,13.69
2022-10-06T06:06:17.606Z,13.74
2022-10-06T06:08:45.474Z,13.77
2022-10-06T06:11:13.252Z,13.81
2022-10-06T06:13:40.840Z,13.86
2022-10-06T06:16:13.566Z,13.91
2022-10-06T06:18:41.455Z,13.96
2022-10-06T06:21:10.046Z,14.00
2022-10-06T06:23:39.576Z,14.04
2022-10-06T06:26:09.378Z,14.10
2022-10-06T06:28:37.353Z,14.16
2022-10-06T06:31:08.202Z,14.23
2022-10-06T06:33:37.293Z,14.31
2022-10-06T06:36:12.786Z,14.39
2022-10-06T06:38:40.538Z,14.46
2022-10-06T06:41:14.971Z,14.54
2022-10-06T06:43:43.193Z,14.64
2022-10-06T06:46:11.172Z,14.73
2022-10-06T06:48:39.062Z,14.81
2022-10-06T06:51:07.790Z,14.90
2022-10-06T06:53:35.638Z,14.99
2022-10-06T06:56:03.944Z,15.10
2022-10-06T06:58:33.295Z,15.21
2022-10-06T07:01:11.432Z,15.32
2022-10-06T07:03:56.624Z,15.46
2022-10-06T07:06:29.853Z,15.57
2022-10-06T07:08:59.424Z,15.68
2022-10-06T07:11:29.221Z,15.82
2022-10-06T07:14:00.423Z,15.98
2022-10-06T07:16:47.758Z,16.09
2022-10-06T07:19:33.413Z,16.26
2022-10-06T07:22:21.669Z,16.37
2022-10-06T07:25:07.392Z,16.44
2022-10-06T07:27:37.684Z,16.52
2022-10-06T07:30:07.227Z,16.56
2022-10-06T07:32:35.188Z,16.59
2022-10-06T07:35:04.043Z,16.63
2022-10-06T07:37:34.170Z,16.64
2022-10-06T07:40:01.805Z,16.68
2022-10-06T07:42:30.464Z,16.72
2022-10-06T07:45:16.480Z,16.76
2022-10-06T07:47:44.120Z,16.81
2022-10-06T07:50:12.344Z,16.86
2022-10-06T07:52:39.940Z,16.91
2022-10-06T07:55:08.703Z,16.94
2022-10-06T07:57:36.251Z,16.94
2022-10-06T08:00:06.515Z,16.97
2022-10-06T08:02:36.070Z,17.05
2022-10-06T08:05:07.894Z,17.19
2022-10-06T08:07:35.888Z,17.28
2022-10-06T08:10:10.834Z,17.35
2022-10-06T08:12:41.119Z,17.40
2022-10-06T08:15:14.969Z,17.44
2022-10-06T08:17:46.242Z,17.48
2022-10-06T08:20:16.809Z,17.53
2022-10-06T08:22:47.546Z,17.56
2022-10-06T08:25:16.632Z,17.68
2022-10-06T08:27:50.082Z,17.81
2022-10-06T08:30:26.553Z,17.93
2022-10-06T08:32:55.861Z,18.01
2022-10-06T08:35:24.525Z,18.07
2022-10-06T08:37:53.546Z,18.09
2022-10-06T08:40:22.139Z,18.10
2022-10-06T08:42:54.279Z,18.10
2022-10-06T08:45:24.086Z,18.09
2022-10-06T08:47:59.709Z,18.10
2022-10-06T08:50:29.604Z,18.12
2022-10-06T08:53:11.744Z,18.14
2022-10-06T08:55:48.097Z,18.17
2022-10-06T08:58:28.355Z,18.21
2022-10-06T09:01:00.640Z,18.23
2022-10-06T09:03:30.620Z,18.26
2022-10-06T09:06:10.724Z,18.31
2022-10-06T09:08:50.652Z,18.27
2022-10-06T09:11:38.398Z,18.26
2022-10-06T09:14:13.511Z,18.37
2022-10-06T09:16:48.781Z,18.44
2022-10-06T09:19:24.677Z,18.46
2022-10-06T09:21:54.266Z,18.47
2022-10-06T09:24:30.719Z,18.43
2022-10-06T09:26:58.813Z,18.35
2022-10-06T09:29:31.654Z,18.28
2022-10-06T09:31:59.650Z,18.22
2022-10-06T09:34:36.883Z,18.16
2022-10-06T09:37:07.416Z,18.11
2022-10-06T09:39:37.090Z,18.09
2022-10-06T09:42:14.904Z,18.06
2022-10-06T09:44:55.505Z,18.03
2022-10-06T09:47:38.994Z,17.99
2022-10-06T09:50:21.042Z,17.98
2022-10-06T09:53:09.648Z,17.94
2022-10-06T09:55:45.878Z,17.88
2022-10-06T09:58:21.312Z,17.85
2022-10-06T10:00:54.186Z,17.79
2022-10-06T10:03:25.407Z,17.74
2022-10-06T10:05:54.515Z,17.72
2022-10-06T10:08:27.101Z,17.72
2022-10-06T10:11:30.796Z,17.69
2022-10-06T10:13:59.488Z,17.62
2022-10-06T10:16:30.310Z,17.54
2022-10-06T10:18:59.491Z,17.39
2022-10-06T10:21:31.261Z,17.24
2022-10-06T10:24:00.777Z,17.12
2022-10-06T10:26:44.190Z,17.06
2022-10-06T10:29:49.594Z,17.02
2022-10-06T10:32:25.794Z,16.97
2022-10-06T10:35:01.591Z,16.93
2022-10-06T10:37:37.599Z,16.90
2022-10-06T10:40:14.703Z,16.89
2022-10-06T10:42:57.122Z,16.88
2022-10-06T10:45:29.037Z,16.90
2022-10-06T10:47:59.748Z,16.89
2022-10-06T10:50:31.408Z,16.89
2022-10-06T10:53:06.984Z,16.89
2022-10-06T10:55:43.804Z,16.89
2022-10-06T10:58:16.602Z,16.92
2022-10-06T11:00:52.074Z,16.95
2022-10-06T11:03:22.311Z,16.98
2022-10-06T11:06:25.746Z,16.98
2022-10-06T11:09:01.643Z,17.00
2022-10-06T11:11:49.882Z,17.02
2022-10-06T11:14:32.661Z,17.08
2022-10-06T11:17:10.959Z,17.14
2022-10-06T11:19:50.194Z,17.17
2022-10-06T11:22:27.053Z,17.24
2022-10-06T11:25:12.952Z,17.31
2022-10-06T11:27:50.665Z,17.34
2022-10-06T11:30:25.551Z,17.30
2022-10-06T11:33:11.296Z,17.28
2022-10-06T11:35:45.704Z,17.27
2022-10-06T11:38:22.840Z,17.28
2022-10-06T11:41:10.158Z,17.29
2022-10-06T11:43:45.815Z,17.33
2022-10-06T11:46:31.856Z,17.36
2022-10-06T11:51:30.471Z,17.41
2022-10-06T11:54:01.900Z,17.46
2022-10-06T11:56:40.109Z,17.56
2022-10-06T11:59:25.638Z,17.63
2022-10-06T12:01:55.983Z,17.71
2022-10-06T12:04:25.981Z,17.80
2022-10-06T12:07:02.405Z,17.90
2022-10-06T12:09:52.280Z,18.01
2022-10-06T12:13:06.241Z,18.15
2022-10-06T12:18:59.727Z,18.18
2022-10-06T12:21:42.603Z,18.13
2022-10-06T12:24:38.137Z,18.08
2022-10-06T12:27:27.511Z,18.02
2022-10-06T12:30:02.346Z,18.03
2022-10-06T12:32:45.943Z,18.03
2022-10-06T12:35:24.058Z,17.96
2022-10-06T12:37:54.411Z,17.90
2022-10-06T12:40:48.447Z,17.86
2022-10-06T12:43:56.679Z,17.90
2022-10-06T12:46:39.774Z,17.98
2022-10-06T12:49:33.634Z,18.01
2022-10-06T12:52:17.609Z,18.08
2022-10-06T12:54:56.149Z,18.25
2022-10-06T12:57:30.412Z,18.53
2022-10-06T13:00:01.492Z,18.69
2022-10-06T13:02:35.528Z,18.83
2022-10-06T13:05:11.545Z,18.83
2022-10-06T13:08:00.526Z,18.80
2022-10-06T13:10:31.686Z,18.78
2022-10-06T13:13:01.547Z,18.85
2022-10-06T13:15:33.894Z,18.86
2022-10-06T13:18:11.988Z,18.87
2022-10-06T13:20:41.958Z,18.94
2022-10-06T13:23:25.799Z,18.92
2022-10-06T13:25:58.842Z,18.82
2022-10-06T13:28:46.346Z,18.81
2022-10-06T13:31:22.270Z,18.90
2022-10-06T13:33:52.297Z,18.99
2022-10-06T13:36:22.790Z,19.12
2022-10-06T13:38:50.762Z,19.24
2022-10-06T13:41:24.864Z,19.36
2022-10-06T13:43:59.151Z,19.51
2022-10-06T13:46:29.488Z,19.64
2022-10-06T13:49:00.132Z,19.80
2022-10-06T13:51:29.947Z,19.96
2022-10-06T13:53:59.251Z,20.08
2022-10-06T13:56:34.309Z,20.26
2022-10-06T13:59:29.767Z,20.39
2022-10-06T14:01:59.249Z,20.54
2022-10-06T14:04:26.805Z,20.62
2022-10-06T14:06:57.866Z,20.60
2022-10-06T14:09:28.441Z,20.46
2022-10-06T14:12:03.354Z,20.28
2022-10-06T14:14:32.008Z,20.03
2022-10-06T14:17:00.441Z,19.82
2022-10-06T14:19:33.947Z,19.66
2022-10-06T14:22:04.647Z,19.52
2022-10-06T14:24:36.550Z,19.39
2022-10-06T14:27:06.701Z,19.26
2022-10-06T14:29:37.145Z,19.09
2022-10-06T14:32:12.425Z,18.96
2022-10-06T14:34:40.362Z,18.82
2022-10-06T14:37:19.939Z,18.67
2022-10-06T14:39:50.075Z,18.57
2022-10-06T14:42:18.493Z,18.46
2022-10-06T14:44:47.569Z,18.34
2022-10-06T14:47:15.971Z,18.24
2022-10-06T14:49:44.755Z,18.14
2022-10-06T14:52:15.049Z,18.06
2022-10-06T14:54:45.317Z,18.01
2022-10-06T14:57:13.115Z,17.96
2022-10-06T14:59:40.725Z,17.90
2022-10-06T15:02:10.548Z,17.81
2022-10-06T15:04:38.510Z,17.73
2022-10-06T15:07:24.390Z,17.68
2022-10-06T15:09:52.975Z,17.60
2022-10-06T15:12:20.550Z,17.54
2022-10-06T15:14:48.147Z,17.48
2022-10-06T15:17:15.731Z,17.41
2022-10-06T15:19:46.105Z,17.33
2022-10-06T15:22:14.074Z,17.27
2022-10-06T15:24:47.967Z,17.22
2022-10-06T15:27:33.820Z,17.20
2022-10-06T15:30:01.391Z,17.16
2022-10-06T15:32:28.931Z,17.13
2022-10-06T15:34:56.531Z,17.09
2022-10-06T15:37:24.179Z,17.05
2022-10-06T15:39:51.834Z,17.00
2022-10-06T15:42:23.357Z,16.95
2022-10-06T15:44:51.371Z,16.90
2022-10-06T15:47:18.882Z,16.84
2022-10-06T15:49:48.520Z,16.76
2022-10-06T15:52:18.249Z,16.69
2022-10-06T15:54:49.118Z,16.61
2022-10-06T15:57:20.930Z,16.53
2022-10-06T15:59:49.047Z,16.44
2022-10-06T16:02:27.958Z,16.38
2022-10-06T16:05:17.181Z,16.31
2022-10-06T16:07:44.709Z,16.22
2022-10-06T16:10:12.932Z,16.14
2022-10-06T16:12:40.458Z,16.08
2022-10-06T16:15:09.755Z,15.98
2022-10-06T16:17:37.248Z,15.84
2022-10-06T16:20:06.144Z,15.72
2022-10-06T16:22:33.739Z,15.65
2022-10-06T16:25:01.616Z,15.57
2022-10-06T16:27:33.312Z,15.47
2022-10-06T16:30:01.366Z,15.37
2022-10-06T16:32:28.854Z,15.27
2022-10-06T16:34:56.543Z,15.17
2022-10-06T16:37:31.241Z,15.05
2022-10-06T16:39:58.751Z,14.94
2022-10-06T16:42:26.677Z,14.83
2022-10-06T16:44:54.236Z,14.73
2022-10-06T16:47:21.774Z,14.64
2022-10-06T16:49:49.267Z,14.53
2022-10-06T16:52:16.811Z,14.42
2022-10-06T16:54:44.294Z,14.33
2022-10-06T16:57:11.805Z,14.27
2022-10-06T16:59:42.119Z,14.22
2022-10-06T17:02:14.080Z,14.17
2022-10-06T17:04:41.722Z,14.12
2022-10-06T17:07:09.338Z,14.04
2022-10-06T17:09:36.902Z,13.95
2022-10-06T17:12:05.289Z,13.78
2022-10-06T17:14:33.909Z,13.59
2022-10-06T17:17:01.461Z,13.38
2022-10-06T17:19:30.247Z,13.19
2022-10-06T17:21:59.680Z,13.09
2022-10-06T17:24:29.298Z,13.02
2022-10-06T17:26:58.402Z,12.86
2022-10-06T17:29:26.675Z,12.72
2022-10-06T17:31:57.936Z,12.62
2022-10-06T17:34:31.397Z,12.54
2022-10-06T17:37:01.670Z,12.51
2022-10-06T17:39:29.465Z,12.47
2022-10-06T17:41:56.982Z,12.44
2022-10-06T17:44:27.264Z,12.40
2022-10-06T17:46:56.771Z,12.35
2022-10-06T17:49:25.308Z,12.29
2022-10-06T17:51:54.577Z,12.24
2022-10-06T17:54:24.151Z,12.20
2022-10-06T17:56:53.566Z,12.13
2022-10-06T17:59:23.376Z,12.03
2022-10-06T18:01:55.612Z,11.94
2022-10-06T18:04:24.261Z,11.84
2022-10-06T18:06:53.454Z,11.77
2022-10-06T18:09:22.019Z,11.67
2022-10-06T18:11:55.035Z,11.58
2022-10-06T18:14:24.615Z,11.47
2022-10-06T18:16:56.445Z,11.38
2022-10-06T18:19:27.903Z,11.27
2022-10-06T18:21:57.511Z,11.23
2022-10-06T18:24:27.046Z,11.23
2022-10-06T18:26:56.355Z,11.23
2022-10-06T18:29:27.319Z,11.21
2022-10-06T18:31:55.906Z,11.16
2022-10-06T18:37:13.202Z,11.10
2022-10-06T18:39:40.715Z,11.07
2022-10-06T18:42:10.602Z,11.06
2022-10-06T18:44:56.578Z,11.05
2022-10-06T18:47:42.526Z,11.03
2022-10-06T18:50:10.644Z,11.02
2022-10-06T18:52:38.860Z,11.01
2022-10-06T18:55:07.548Z,10.98
2022-10-06T18:57:36.014Z,10.95
2022-10-06T19:00:04.281Z,10.92
2022-10-06T19:02:31.876Z,10.89
2022-10-06T19:04:59.489Z,10.87
2022-10-06T19:07:28.509Z,10.84
2022-10-06T19:09:56.221Z,10.80
2022-10-06T19:12:23.891Z,10.78
2022-10-06T19:14:51.512Z,10.77
2022-10-06T19:17:22.134Z,10.72
2022-10-06T19:19:50.623Z,10.67
2022-10-06T19:22:23.989Z,10.65
2022-10-06T19:24:52.167Z,10.63
2022-10-06T19:27:24.532Z,10.60
2022-10-06T19:29:55.833Z,10.55
2022-10-06T19:32:26.423Z,10.53
2022-10-06T19:34:57.280Z,10.51
2022-10-06T19:37:26.372Z,10.46
2022-10-06T19:39:53.997Z,10.38
2022-10-06T19:42:39.713Z,10.29
2022-10-06T19:45:12.454Z,10.19
2022-10-06T19:47:40.284Z,10.11
2022-10-06T19:50:11.717Z,10.07
2022-10-06T19:52:40.564Z,10.04
2022-10-06T19:55:08.507Z,10.01
2022-10-06T19:57:36.242Z,9.99
2022-10-06T20:00:06.549Z,9.95
2022-10-06T20:02:39.848Z,9.93
2022-10-06T20:05:10.355Z,9.92
2022-10-06T20:07:37.891Z,9.90
2022-10-06T20:10:06.306Z,9.90
2022-10-06T20:12:34.454Z,9.86
2022-10-06T20:15:01.988Z,9.83
2022-10-06T20:17:29.584Z,9.82
2022-10-06T20:19:58.088Z,9.80
2022-10-06T20:22:26.122Z,9.76
2022-10-06T20:24:53.792Z,9.73
2022-10-06T20:27:21.449Z,9.71
2022-10-06T20:29:48.950Z,9.68
2022-10-06T20:32:16.491Z,9.65
2022-10-06T20:34:44.028Z,9.63
2022-10-06T20:37:11.586Z,9.58
2022-10-06T20:39:59.401Z,9.51
2022-10-06T20:42:27.392Z,9.47
2022-10-06T20:44:55.226Z,9.45
2022-10-06T20:47:22.749Z,9.43
2022-10-06T20:49:54.451Z,9.42
2022-10-06T20:52:22.501Z,9.41
2022-10-06T20:54:50.514Z,9.35
2022-10-06T20:57:18.388Z,9.25
2022-10-06T20:59:45.926Z,9.20
2022-10-06T21:02:13.884Z,9.16
2022-10-06T21:04:42.806Z,9.15
2022-10-06T21:07:10.524Z,9.12
2022-10-06T21:09:38.123Z,9.07
2022-10-06T21:12:05.785Z,9.04
2022-10-06T21:14:34.719Z,9.02
2022-10-06T21:17:02.301Z,8.91
2022-10-06T21:19:30.884Z,8.80
2022-10-06T21:21:59.933Z,8.68
2022-10-06T21:24:27.534Z,8.62
2022-10-06T21:26:55.126Z,8.60
2022-10-06T21:29:22.712Z,8.57
2022-10-06T21:31:50.304Z,8.54
2022-10-06T21:34:17.903Z,8.53
2022-10-06T21:36:45.530Z,8.55
2022-10-06T21:39:13.699Z,8.56
2022-10-06T21:41:41.694Z,8.54
2022-10-06T21:44:11.660Z,8.53
2022-10-06T21:46:41.137Z,8.51
2022-10-06T21:49:11.939Z,8.46
2022-10-06T21:51:40.524Z,8.41
2022-10-06T21:54:09.677Z,8.31
2022-10-06T21:56:38.379Z,8.17
2022-10-06T21:59:06.260Z,8.16
2022-10-06T22:01:36.475Z,8.18
2022-10-06T22:04:05.074Z,8.17
2022-10-06T22:06:35.020Z,8.15
2022-10-06T22:09:04.759Z,8.15
2022-10-06T22:11:34.483Z,8.16
2022-10-06T22:14:03.608Z,8.17
2022-10-06T22:16:33.902Z,8.16
2022-10-06T22:19:04.235Z,8.15
2022-10-06T22:21:33.728Z,8.15
2022-10-06T22:24:03.469Z,8.11
2022-10-06T22:26:32.803Z,8.08
2022-10-06T22:29:00.567Z,8.07
2022-10-06T22:31:30.310Z,8.06
2022-10-06T22:33:59.959Z,8.01
2022-10-06T22:36:29.023Z,7.95
2022-10-06T22:38:56.679Z,7.91
2022-10-06T22:41:24.637Z,7.87
2022-10-06T22:43:56.744Z,7.82
2022-10-06T22:46:24.928Z,7.78
2022-10-06T22:48:53.071Z,7.73
2022-10-06T22:51:20.780Z,7.72
2022-10-06T22:53:57.312Z,7.70
2022-10-06T22:56:26.611Z,7.55
2022-10-06T22:58:54.267Z,7.42
2022-10-06T23:01:22.074Z,7.40
2022-10-06T23:03:49.681Z,7.40
2022-10-06T23:06:19.579Z,7.41
2022-10-06T23:08:47.120Z,7.39
2022-10-06T23:11:16.674Z,7.36
2022-10-06T23:13:44.946Z,7.32
2022-10-06T23:16:17.195Z,7.29
2022-10-06T23:18:45.450Z,7.24
2022-10-06T23:21:18.412Z,7.18
2022-10-06T23:23:46.424Z,7.17
2022-10-06T23:26:15.685Z,7.17
2022-10-06T23:28:43.642Z,7.13
2022-10-06T23:31:12.477Z,6.96
2022-10-06T23:33:40.063Z,6.87
2022-10-06T23:36:09.821Z,6.85
2022-10-06T23:38:38.585Z,6.85
2022-10-06T23:41:06.774Z,6.74
2022-10-06T23:43:35.058Z,6.63
2022-10-06T23:46:03.192Z,6.61
2022-10-06T23:48:31.233Z,6.63
2022-10-06T23:51:01.240Z,6.67
2022-10-06T23:53:29.823Z,6.69
2022-10-06T23:55:57.980Z,6.71
2022-10-06T23:58:26.480Z,6.75
